Time;durP1;ratioP1;P1;durP2;ratioP2;P2;SDS_P1;SDS_P2;PMS_P1;PMS_P2;Temp;Humidity;BMP_temperature;BMP_pressure;BME280_temperature;BME280_humidity;BME280_pressure;Samples;Min_cycle;Max_cycle;Signal;HPM_P1;HPM_P2
2023/09/28 00:01:16;;;;;;;4.32;2.75;;;19.40;90.00;;;;;;5055900;28;20028;-78
2023/09/28 00:03:42;;;;;;;5.32;3.17;;;19.40;90.10;;;;;;5055951;28;20062;-79
2023/09/28 00:06:07;;;;;;;4.05;2.70;;;19.40;90.10;;;;;;5073727;28;20430;-79
2023/09/28 00:08:33;;;;;;;4.28;2.58;;;19.40;90.10;;;;;;5055562;28;20024;-77
2023/09/28 00:10:59;;;;;;;4.57;2.78;;;19.30;90.10;;;;;;5055624;28;20020;-79
2023/09/28 00:13:25;;;;;;;3.88;2.40;;;19.30;90.10;;;;;;5073637;28;20024;-80
2023/09/28 00:15:50;;;;;;;4.10;2.70;;;19.30;90.10;;;;;;5055718;28;20038;-80
2023/09/28 00:18:16;;;;;;;4.65;2.72;;;19.40;90.10;;;;;;5073517;28;20043;-79
2023/09/28 00:20:41;;;;;;;4.28;2.70;;;19.30;90.10;;;;;;5073105;28;20036;-79
2023/09/28 00:23:07;;;;;;;4.32;2.60;;;19.40;90.10;;;;;;5073409;28;20116;-78
2023/09/28 00:25:32;;;;;;;4.40;2.70;;;19.30;90.20;;;;;;5073381;28;20021;-78
2023/09/28 00:27:58;;;;;;;4.30;2.72;;;19.40;90.20;;;;;;5055424;28;20465;-80
2023/09/28 00:30:26;;;;;;;4.03;2.55;;;19.30;90.10;;;;;;5055124;28;20479;-78
2023/09/28 00:32:57;;;;;;;4.88;2.88;;;19.40;90.10;;;;;;5055322;28;20048;-79
2023/09/28 00:35:25;;;;;;;4.72;2.88;;;19.40;90.00;;;;;;5055274;28;20078;-79
2023/09/28 00:37:51;;;;;;;4.40;2.85;;;19.40;90.00;;;;;;5054652;28;20446;-79
2023/09/28 00:40:19;;;;;;;4.38;2.60;;;19.40;90.00;;;;;;5072816;28;20078;-79
2023/09/28 00:42:45;;;;;;;3.95;2.50;;;19.40;89.90;;;;;;5055148;28;20077;-79
2023/09/28 00:45:11;;;;;;;5.10;2.58;;;19.40;90.00;;;;;;5072992;28;20021;-79
2023/09/28 00:47:40;;;;;;;5.05;2.75;;;19.40;90.00;;;;;;5072829;28;20020;-79
2023/09/28 00:50:16;;;;;;;4.55;2.63;;;19.40;90.00;;;;;;5065946;28;20049;-79
2023/09/28 00:52:45;;;;;;;5.28;2.80;;;19.40;90.00;;;;;;5068497;28;20430;-79
2023/09/28 00:55:13;;;;;;;4.38;2.80;;;19.40;90.00;;;;;;5053053;28;20044;-79
2023/09/28 00:57:39;;;;;;;4.32;2.78;;;19.40;90.00;;;;;;5034923;28;20021;-79
2023/09/28 01:00:18;;;;;;;4.40;2.60;;;19.40;90.00;;;;;;5034695;28;20025;-79
2023/09/28 01:02:51;;;;;;;3.70;2.60;;;19.40;90.10;;;;;;5068262;28;20106;-78
2023/09/28 01:05:18;;;;;;;4.35;2.78;;;19.40;90.10;;;;;;5052679;28;20371;-77
2023/09/28 01:07:43;;;;;;;3.80;2.50;;;19.30;90.10;;;;;;5053086;28;20024;-79
2023/09/28 01:10:12;;;;;;;4.03;2.65;;;19.30;90.10;;;;;;5052408;28;20025;-79
2023/09/28 01:12:38;;;;;;;4.68;2.80;;;19.30;90.10;;;;;;5034889;28;20017;-79
2023/09/28 01:15:09;;;;;;;4.45;2.80;;;19.30;90.10;;;;;;5034717;28;20025;-79
2023/09/28 01:17:36;;;;;;;4.00;2.60;;;19.30;90.30;;;;;;5052619;28;20020;-79
2023/09/28 01:20:24;;;;;;;3.97;2.67;;;19.30;90.10;;;;;;5052134;28;20039;-79
2023/09/28 01:22:50;;;;;;;3.92;2.60;;;19.40;90.10;;;;;;5034561;28;20032;-79
2023/09/28 01:25:19;;;;;;;4.47;2.67;;;19.30;90.20;;;;;;5052484;28;20390;-79
2023/09/28 01:27:48;;;;;;;4.40;2.67;;;19.30;90.20;;;;;;5034418;28;20424;-79
2023/09/28 01:30:14;;;;;;;4.22;2.90;;;19.30;90.20;;;;;;5034370;28;20017;-78
2023/09/28 01:32:40;;;;;;;3.55;2.42;;;19.40;90.10;;;;;;5034501;28;20095;-78
2023/09/28 01:35:06;;;;;;;3.53;2.50;;;19.40;90.10;;;;;;5034671;28;20021;-80
2023/09/28 01:37:54;;;;;;;5.10;2.60;;;19.40;90.00;;;;;;5052372;28;20021;-79
2023/09/28 01:40:19;;;;;;;4.30;2.75;;;19.40;90.00;;;;;;5052110;28;20033;-78
2023/09/28 01:42:45;;;;;;;4.55;2.80;;;19.40;90.00;;;;;;5067746;28;20036;-79
2023/09/28 01:45:11;;;;;;;3.70;2.40;;;19.40;90.00;;;;;;5067716;28;20021;-78
2023/09/28 01:47:37;;;;;;;4.38;2.63;;;19.40;90.00;;;;;;5052075;28;20071;-79
2023/09/28 01:53:25;;;;;;;4.43;2.70;;;19.40;90.00;;;;;;5068677;28;20027;-78
2023/09/28 01:55:51;;;;;;;4.40;2.50;;;19.40;90.00;;;;;;5058812;28;20398;-77
2023/09/28 01:58:16;;;;;;;3.78;2.50;;;19.40;90.10;;;;;;5072442;28;20067;-79
2023/09/28 02:00:45;;;;;;;4.13;2.50;;;19.40;90.10;;;;;;5075998;28;20119;-79
2023/09/28 02:03:11;;;;;;;3.45;2.40;;;19.30;90.10;;;;;;5076055;28;20027;-79
2023/09/28 02:05:37;;;;;;;4.30;2.60;;;19.40;90.10;;;;;;5076071;28;20033;-79
2023/09/28 02:08:03;;;;;;;3.63;2.38;;;19.30;90.10;;;;;;5074850;28;20498;-80
2023/09/28 02:10:31;;;;;;;4.70;3.00;;;19.30;90.10;;;;;;5075943;28;20029;-80
2023/09/28 02:12:57;;;;;;;4.85;2.90;;;19.30;90.10;;;;;;5075876;28;20077;-78
2023/09/28 02:15:23;;;;;;;4.32;2.70;;;19.30;90.10;;;;;;5075878;28;20107;-79
2023/09/28 02:17:49;;;;;;;4.40;2.65;;;19.30;90.10;;;;;;5075884;28;20138;-80
2023/09/28 02:20:16;;;;;;;4.15;2.45;;;19.30;90.10;;;;;;5074055;28;20025;-79
2023/09/28 02:22:46;;;;;;;4.80;2.85;;;19.30;90.20;;;;;;5075657;28;20020;-80
2023/09/28 02:25:20;;;;;;;3.47;2.20;;;19.30;90.20;;;;;;5074488;28;20020;-79
2023/09/28 02:27:47;;;;;;;3.70;2.42;;;19.40;90.20;;;;;;5074349;28;20052;-79
2023/09/28 02:30:17;;;;;;;4.50;2.53;;;19.30;90.10;;;;;;5075261;28;20029;-79
2023/09/28 02:32:43;;;;;;;4.63;2.80;;;19.40;90.10;;;;;;5075500;28;20052;-79
2023/09/28 02:35:11;;;;;;;4.40;2.60;;;19.40;90.10;;;;;;5074151;28;20382;-78
2023/09/28 02:37:37;;;;;;;3.92;2.63;;;19.40;90.00;;;;;;5075611;28;20066;-79
2023/09/28 02:40:05;;;;;;;4.18;2.63;;;19.40;90.00;;;;;;5057200;28;20036;-79
2023/09/28 02:42:31;;;;;;;3.78;2.47;;;19.40;90.00;;;;;;5057534;28;20474;-78
2023/09/28 02:44:58;;;;;;;3.55;2.55;;;19.40;90.00;;;;;;5057516;28;20075;-79
2023/09/28 02:47:24;;;;;;;4.03;2.72;;;19.40;90.00;;;;;;5075935;28;20024;-78
2023/09/28 02:49:49;;;;;;;5.15;2.65;;;19.40;90.00;;;;;;5074844;28;20108;-79
2023/09/28 02:52:16;;;;;;;3.97;2.80;;;19.40;90.10;;;;;;5075214;28;20508;-78
2023/09/28 02:54:42;;;;;;;3.97;2.50;;;19.40;90.10;;;;;;5056927;28;20020;-80
2023/09/28 02:57:07;;;;;;;3.78;2.50;;;19.30;90.10;;;;;;5057325;28;20023;-78
2023/09/28 02:59:33;;;;;;;4.50;2.65;;;19.30;90.10;;;;;;5056911;28;20112;-79
2023/09/28 03:01:58;;;;;;;4.45;2.67;;;19.30;90.10;;;;;;5056734;28;20539;-78
2023/09/28 03:04:24;;;;;;;4.95;2.83;;;19.30;90.10;;;;;;5057153;28;20032;-79
2023/09/28 03:06:52;;;;;;;3.60;2.30;;;19.30;90.10;;;;;;5074969;28;20020;-79
2023/09/28 03:09:18;;;;;;;3.65;2.80;;;19.30;90.10;;;;;;5056745;28;20028;-79
2023/09/28 03:11:43;;;;;;;3.92;2.55;;;19.30;90.10;;;;;;5057073;28;20025;-79
2023/09/28 03:14:09;;;;;;;4.13;2.60;;;19.30;90.10;;;;;;5057009;28;20028;-79
2023/09/28 03:16:34;;;;;;;4.57;2.90;;;19.30;90.10;;;;;;5057013;28;20030;-79
2023/09/28 03:19:00;;;;;;;3.80;2.60;;;19.30;90.20;;;;;;5074295;28;20090;-78
2023/09/28 03:21:29;;;;;;;3.63;2.40;;;19.30;90.10;;;;;;5056825;28;20020;-80
2023/09/28 03:23:56;;;;;;;3.80;2.45;;;19.30;90.30;;;;;;5074639;28;20075;-78
2023/09/28 03:26:23;;;;;;;3.65;2.45;;;19.30;90.30;;;;;;5074660;28;20048;-79
2023/09/28 03:28:48;;;;;;;3.72;2.60;;;19.30;90.30;;;;;;5056103;28;20024;-79
2023/09/28 03:31:14;;;;;;;4.40;2.60;;;19.30;90.20;;;;;;5074614;28;20024;-78
2023/09/28 03:33:40;;;;;;;3.50;2.28;;;19.30;90.20;;;;;;5056543;28;20111;-79
2023/09/28 03:36:06;;;;;;;4.05;2.60;;;19.40;90.10;;;;;;5056626;28;20021;-78
2023/09/28 03:38:32;;;;;;;4.20;2.58;;;19.40;90.10;;;;;;5074277;28;20484;-77
2023/09/28 03:40:58;;;;;;;4.60;2.78;;;19.40;90.10;;;;;;5056384;28;20058;-79
2023/09/28 03:43:24;;;;;;;4.25;2.60;;;19.40;90.10;;;;;;5056344;28;20502;-79
2023/09/28 03:45:50;;;;;;;4.18;2.65;;;19.40;90.10;;;;;;5074216;28;20097;-79
2023/09/28 03:48:15;;;;;;;4.15;2.70;;;19.40;90.10;;;;;;5056141;28;20632;-78
2023/09/28 03:50:41;;;;;;;4.13;2.45;;;19.40;90.10;;;;;;5056032;28;20119;-79
2023/09/28 03:53:06;;;;;;;4.47;2.60;;;19.30;90.10;;;;;;5055380;28;20103;-79
2023/09/28 03:55:32;;;;;;;4.20;2.50;;;19.20;90.10;;;;;;5073907;28;20501;-79
2023/09/28 03:58:01;;;;;;;3.85;2.42;;;19.30;90.10;;;;;;5056013;28;20028;-79
2023/09/28 04:00:27;;;;;;;3.85;2.63;;;19.30;90.20;;;;;;5055801;28;20017;-79
2023/09/28 04:02:53;;;;;;;4.13;2.47;;;19.30;90.20;;;;;;5056324;28;20032;-79
2023/09/28 04:05:19;;;;;;;4.03;2.60;;;19.30;90.20;;;;;;5055958;28;20021;-79
2023/09/28 04:07:45;;;;;;;4.00;2.30;;;19.30;90.20;;;;;;5073742;28;20062;-79
2023/09/28 04:10:11;;;;;;;3.88;2.30;;;19.30;90.20;;;;;;5073417;28;20036;-79
2023/09/28 04:12:37;;;;;;;3.60;2.40;;;19.30;90.20;;;;;;5054912;28;20490;-79
2023/09/28 04:15:04;;;;;;;3.97;2.50;;;19.30;90.20;;;;;;5055822;28;20033;-79
2023/09/28 04:17:30;;;;;;;3.95;2.28;;;19.30;90.20;;;;;;5055487;28;20380;-80
2023/09/28 04:19:55;;;;;;;3.45;2.33;;;19.30;90.20;;;;;;5055194;28;20023;-79
2023/09/28 04:22:21;;;;;;;3.88;2.55;;;19.30;90.30;;;;;;5055513;28;20069;-79
2023/09/28 04:24:46;;;;;;;3.50;2.40;;;19.30;90.30;;;;;;5055492;28;20505;-79
2023/09/28 04:27:12;;;;;;;3.63;2.30;;;19.30;90.40;;;;;;5055650;28;20483;-79
2023/09/28 04:29:38;;;;;;;3.72;2.40;;;19.30;90.30;;;;;;5073055;28;20025;-79
2023/09/28 04:32:04;;;;;;;4.70;2.55;;;19.30;90.30;;;;;;5073078;28;20422;-79
2023/09/28 04:34:30;;;;;;;3.53;2.30;;;19.30;90.20;;;;;;5071254;28;20017;-78
2023/09/28 04:36:57;;;;;;;3.75;2.47;;;19.40;90.20;;;;;;5050270;28;20021;-79
2023/09/28 04:39:24;;;;;;;4.00;2.58;;;19.40;90.20;;;;;;5050710;28;20040;-78
2023/09/28 04:41:56;;;;;;;3.75;2.40;;;19.40;90.20;;;;;;5073260;28;20119;-79
2023/09/28 04:44:23;;;;;;;4.30;2.60;;;19.40;90.20;;;;;;5073308;28;20024;-80
2023/09/28 04:46:50;;;;;;;4.03;2.50;;;19.40;90.10;;;;;;5055173;28;20031;-79
2023/09/28 04:49:18;;;;;;;3.55;2.40;;;19.30;90.10;;;;;;5054808;28;20128;-78
2023/09/28 04:51:44;;;;;;;3.83;2.53;;;19.30;90.20;;;;;;5055160;28;20441;-79
2023/09/28 04:54:10;;;;;;;4.03;2.60;;;19.30;90.20;;;;;;5073086;28;20024;-78
2023/09/28 04:56:36;;;;;;;3.88;2.40;;;19.30;90.20;;;;;;5054933;28;20476;-78
2023/09/28 04:59:03;;;;;;;4.00;2.50;;;19.30;90.20;;;;;;5073112;28;20074;-78
2023/09/28 05:01:30;;;;;;;3.58;2.30;;;19.30;90.20;;;;;;5048739;28;20040;-76
2023/09/28 05:03:56;;;;;;;4.03;2.60;;;19.30;90.20;;;;;;5048881;28;20040;-78
2023/09/28 05:06:22;;;;;;;4.18;2.42;;;19.30;90.20;;;;;;5069228;28;20024;-78
2023/09/28 05:08:47;;;;;;;4.70;2.65;;;19.30;90.20;;;;;;5069220;28;20097;-80
2023/09/28 05:11:13;;;;;;;3.70;2.50;;;19.30;90.30;;;;;;5069134;28;20479;-78
2023/09/28 05:13:39;;;;;;;4.10;2.58;;;19.30;90.30;;;;;;5067234;28;20047;-78
2023/09/28 05:16:04;;;;;;;3.58;2.53;;;19.30;90.30;;;;;;5069136;28;20021;-81
2023/09/28 05:18:30;;;;;;;4.20;2.58;;;19.30;90.30;;;;;;5069151;28;20028;-80
2023/09/28 05:20:56;;;;;;;3.70;2.50;;;19.30;90.30;;;;;;5069678;28;20037;-79
2023/09/28 05:23:22;;;;;;;3.83;2.60;;;19.30;90.40;;;;;;5051333;28;20103;-78
2023/09/28 05:25:47;;;;;;;4.07;2.30;;;19.30;90.40;;;;;;5051499;28;20520;-79
2023/09/28 05:28:14;;;;;;;3.83;2.30;;;19.30;90.60;;;;;;5050257;28;20035;-80
2023/09/28 05:30:39;;;;;;;4.03;2.42;;;19.30;90.30;;;;;;5050402;28;20032;-80
2023/09/28 05:33:05;;;;;;;4.03;2.55;;;19.30;90.30;;;;;;5068449;28;20023;-81
2023/09/28 05:35:30;;;;;;;3.97;2.53;;;19.40;90.20;;;;;;5069245;28;20081;-80
2023/09/28 05:37:56;;;;;;;3.60;2.33;;;19.40;90.20;;;;;;5049991;28;20032;-80
2023/09/28 05:40:22;;;;;;;3.67;2.50;;;19.40;90.20;;;;;;5067344;28;20020;-80
2023/09/28 05:42:48;;;;;;;3.58;2.33;;;19.40;90.20;;;;;;5049840;28;20056;-77
2023/09/28 05:45:14;;;;;;;4.10;2.58;;;19.30;90.10;;;;;;5049823;28;20025;-80
2023/09/28 05:47:39;;;;;;;4.13;2.70;;;19.30;90.20;;;;;;5049659;28;20086;-77
2023/09/28 05:50:05;;;;;;;3.50;2.30;;;19.30;90.20;;;;;;5049719;28;20112;-80
2023/09/28 05:52:31;;;;;;;3.35;2.35;;;19.30;90.20;;;;;;5067315;28;20040;-78
2023/09/28 05:54:57;;;;;;;3.95;2.30;;;19.30;90.20;;;;;;5050080;28;20429;-80
2023/09/28 05:57:22;;;;;;;3.17;2.20;;;19.30;90.20;;;;;;5067339;28;20068;-78
2023/09/28 05:59:49;;;;;;;3.60;2.30;;;19.30;90.30;;;;;;5049562;28;20060;-79
2023/09/28 06:02:14;;;;;;;3.30;2.30;;;19.30;90.30;;;;;;5049419;28;20476;-78
2023/09/28 06:04:41;;;;;;;4.20;2.50;;;19.30;90.30;;;;;;5049809;28;20029;-79
2023/09/28 06:07:07;;;;;;;3.78;2.50;;;19.30;90.30;;;;;;5049912;28;20032;-76
2023/09/28 06:09:32;;;;;;;3.55;2.20;;;19.30;90.30;;;;;;5050137;28;20040;-80
2023/09/28 06:11:58;;;;;;;4.13;2.42;;;19.30;90.30;;;;;;5040622;28;20927;-79
2023/09/28 06:14:24;;;;;;;2.92;2.20;;;19.30;90.30;;;;;;5033345;28;20019;-79
2023/09/28 06:16:49;;;;;;;4.10;2.45;;;19.30;90.40;;;;;;5053502;28;20028;-78
2023/09/28 06:19:15;;;;;;;4.78;2.80;;;19.30;90.40;;;;;;5039716;28;20676;-79
2023/09/28 06:21:41;;;;;;;3.80;2.50;;;19.40;90.50;;;;;;5040595;28;20028;-80
2023/09/28 06:24:06;;;;;;;4.30;2.42;;;19.30;90.40;;;;;;5048114;28;20025;-79
2023/09/28 06:26:33;;;;;;;3.85;2.40;;;19.30;90.40;;;;;;5048071;28;20037;-79
2023/09/28 06:28:59;;;;;;;4.03;2.22;;;19.40;90.40;;;;;;5029739;28;20394;-79
2023/09/28 06:31:25;;;;;;;3.65;2.47;;;19.40;90.20;;;;;;5029615;28;20025;-79
2023/09/28 06:33:50;;;;;;;3.78;2.50;;;19.40;90.20;;;;;;5030240;28;20036;-78
2023/09/28 06:36:16;;;;;;;3.83;2.40;;;19.40;90.30;;;;;;5049683;28;20025;-78
2023/09/28 06:38:42;;;;;;;4.60;2.60;;;19.50;90.00;;;;;;5051416;28;20073;-79
2023/09/28 06:41:07;;;;;;;3.60;2.28;;;19.50;90.00;;;;;;5033983;28;20025;-79
2023/09/28 06:43:33;;;;;;;4.32;2.53;;;19.50;90.00;;;;;;5033599;28;20048;-79
2023/09/28 06:45:59;;;;;;;4.40;2.67;;;19.60;89.80;;;;;;5050989;28;20033;-80
2023/09/28 06:48:28;;;;;;;4.80;2.40;;;19.60;89.80;;;;;;5033349;28;20033;-79
2023/09/28 06:50:57;;;;;;;5.22;2.83;;;19.60;89.60;;;;;;5033683;28;20521;-78
2023/09/28 06:53:24;;;;;;;5.40;2.58;;;19.60;89.80;;;;;;5033604;28;20032;-78
2023/09/28 06:55:49;;;;;;;4.15;2.70;;;19.60;89.60;;;;;;5051366;28;20044;-79
2023/09/28 06:58:15;;;;;;;3.75;2.30;;;19.60;89.50;;;;;;5033616;28;20093;-79
2023/09/28 07:00:42;;;;;;;4.05;2.53;;;19.60;89.50;;;;;;5032706;28;20032;-79
2023/09/28 07:03:08;;;;;;;4.70;2.72;;;19.60;89.40;;;;;;5033061;28;20025;-79
2023/09/28 07:05:34;;;;;;;4.53;2.58;;;19.60;89.20;;;;;;5050523;28;20427;-79
2023/09/28 07:08:00;;;;;;;4.40;2.53;;;19.70;89.20;;;;;;5050806;28;20290;-79
2023/09/28 07:10:26;;;;;;;5.75;2.85;;;19.70;89.10;;;;;;5057064;28;20021;-79
2023/09/28 07:12:52;;;;;;;4.93;2.83;;;19.70;89.10;;;;;;5052727;28;20036;-79
2023/09/28 07:15:17;;;;;;;4.18;2.53;;;19.70;89.00;;;;;;5070984;28;20024;-79
2023/09/28 07:17:44;;;;;;;5.75;2.55;;;19.70;88.90;;;;;;5053162;28;20494;-79
2023/09/28 07:20:14;;;;;;;4.72;2.90;;;19.80;88.90;;;;;;5053183;28;20036;-79
2023/09/28 07:22:40;;;;;;;3.90;2.58;;;19.80;88.90;;;;;;5070730;28;20024;-79
2023/09/28 07:25:07;;;;;;;4.35;2.75;;;19.80;88.80;;;;;;5070994;28;20108;-79
2023/09/28 07:27:34;;;;;;;4.50;2.40;;;19.80;88.80;;;;;;5052312;28;20083;-79
2023/09/28 07:30:05;;;;;;;4.90;2.25;;;20.10;88.80;;;;;;5052141;28;20119;-77
2023/09/28 07:32:31;;;;;;;4.63;2.58;;;19.90;88.50;;;;;;5052352;28;20024;-77
2023/09/28 07:35:00;;;;;;;4.35;2.50;;;20.00;88.40;;;;;;5052192;28;20032;-81
2023/09/28 07:37:27;;;;;;;4.72;2.47;;;20.00;88.20;;;;;;5070612;28;20047;-80
2023/09/28 07:39:53;;;;;;;4.18;2.72;;;20.00;88.10;;;;;;5046643;28;20061;-78
2023/09/28 07:42:19;;;;;;;4.85;2.60;;;20.00;88.10;;;;;;5059112;28;20034;-79
2023/09/28 07:44:44;;;;;;;3.65;2.20;;;20.00;88.10;;;;;;5042943;28;20025;-78
2023/09/28 07:47:10;;;;;;;4.40;2.40;;;20.00;88.00;;;;;;5046072;28;20098;-78
2023/09/28 07:49:36;;;;;;;4.13;2.58;;;20.00;87.90;;;;;;5052129;28;20067;-80
2023/09/28 07:52:02;;;;;;;4.95;2.50;;;20.10;87.90;;;;;;5069795;28;20543;-79
2023/09/28 07:54:28;;;;;;;4.35;2.42;;;20.10;87.90;;;;;;5052022;28;20021;-80
2023/09/28 07:56:55;;;;;;;4.32;2.60;;;20.10;87.90;;;;;;5051801;28;20048;-79
2023/09/28 07:59:21;;;;;;;4.22;2.42;;;20.10;87.80;;;;;;5069445;28;20028;-79
2023/09/28 08:01:47;;;;;;;3.72;2.40;;;20.20;87.80;;;;;;5069607;28;20086;-78
2023/09/28 08:04:13;;;;;;;4.28;2.60;;;20.20;87.70;;;;;;5051630;28;20518;-79
2023/09/28 08:06:40;;;;;;;4.35;2.42;;;20.20;87.70;;;;;;5069619;28;20043;-80
2023/09/28 08:09:05;;;;;;;5.05;2.50;;;20.20;87.60;;;;;;5069846;28;20046;-81
2023/09/28 08:11:32;;;;;;;4.50;2.58;;;20.20;87.60;;;;;;5052361;28;20024;-80
2023/09/28 08:13:57;;;;;;;4.72;2.75;;;20.20;87.60;;;;;;5069994;28;20097;-76
2023/09/28 08:16:23;;;;;;;4.25;2.47;;;20.30;87.60;;;;;;5048301;28;20036;-78
2023/09/28 08:18:49;;;;;;;4.68;2.53;;;20.30;87.60;;;;;;5031541;28;20025;-77
2023/09/28 08:21:15;;;;;;;4.68;2.60;;;20.30;87.60;;;;;;5049347;28;20021;-80
2023/09/28 08:23:41;;;;;;;4.80;2.67;;;20.30;87.60;;;;;;5031543;28;20031;-77
2023/09/28 08:26:06;;;;;;;4.32;2.70;;;20.90;87.90;;;;;;5031462;28;20112;-80
2023/09/28 08:28:32;;;;;;;4.70;2.67;;;19.60;87.00;;;;;;5031319;28;20025;-78
2023/09/28 08:31:03;;;;;;;4.30;2.40;;;19.80;87.00;;;;;;5031179;28;20017;-79
2023/09/28 08:33:29;;;;;;;4.20;2.40;;;20.00;87.40;;;;;;5038620;28;20115;-79
2023/09/28 08:35:58;;;;;;;4.82;2.70;;;21.90;88.00;;;;;;5050752;28;20494;-78
2023/09/28 08:38:23;;;;;;;4.43;2.60;;;20.30;87.50;;;;;;5068310;28;20036;-79
2023/09/28 08:40:56;;;;;;;4.75;2.55;;;20.30;87.00;;;;;;5050280;28;20028;-77
2023/09/28 08:43:22;;;;;;;4.53;2.60;;;20.40;87.10;;;;;;5069137;28;20032;-80
2023/09/28 08:45:50;;;;;;;5.18;2.90;;;20.40;87.20;;;;;;5069665;28;20107;-79
2023/09/28 08:48:22;;;;;;;5.30;2.65;;;20.50;87.80;;;;;;5051815;28;20036;-80
2023/09/28 08:50:53;;;;;;;;;;;20.10;87.10;;;;;;5051107;28;20043;-80
2023/09/28 08:53:23;;;;;;;4.72;2.72;;;20.40;87.20;;;;;;5051865;28;19911;-79
2023/09/28 08:55:54;;;;;;;4.00;2.78;;;20.50;87.30;;;;;;5051172;28;20028;-80
2023/09/28 08:58:23;;;;;;;;;;;20.50;87.30;;;;;;5051039;28;20025;-78
2023/09/28 09:00:49;;;;;;;5.15;2.83;;;20.90;87.40;;;;;;5051463;28;19912;-79
2023/09/28 09:03:17;;;;;;;5.45;2.60;;;20.80;87.30;;;;;;5069506;28;20021;-80
2023/09/28 09:05:46;;;;;;;4.30;2.30;;;20.50;87.00;;;;;;5051626;28;20052;-79
2023/09/28 09:08:14;;;;;;;4.50;2.78;;;20.60;86.90;;;;;;5069350;28;20060;-80
2023/09/28 09:10:40;;;;;;;4.63;2.60;;;20.60;86.90;;;;;;5051106;28;20057;-78
2023/09/28 09:13:18;;;;;;;4.13;2.50;;;20.60;86.80;;;;;;5069396;28;20025;-80
2023/09/28 09:15:43;;;;;;;4.05;2.67;;;20.70;86.70;;;;;;5051942;28;20178;-79
2023/09/28 09:18:19;;;;;;;4.25;2.55;;;20.70;86.70;;;;;;5051613;28;20115;-79
2023/09/28 09:20:49;;;;;;;4.22;2.70;;;20.80;86.60;;;;;;5050959;28;20028;-80
2023/09/28 09:23:18;;;;;;;4.63;2.50;;;20.90;86.50;;;;;;5051176;28;20028;-80
2023/09/28 09:25:56;;;;;;;3.97;2.40;;;20.90;86.50;;;;;;5050788;28;20044;-78
2023/09/28 09:28:37;;;;;;;4.78;2.70;;;20.90;86.50;;;;;;5068853;28;20028;-82
2023/09/28 09:31:08;;;;;;;5.20;2.60;;;20.90;86.50;;;;;;5068553;28;20093;-77
2023/09/28 09:33:36;;;;;;;4.38;2.53;;;20.80;86.50;;;;;;5069037;28;20058;-79
2023/09/28 09:36:02;;;;;;;3.83;2.50;;;20.90;86.90;;;;;;5069360;28;20024;-79
2023/09/28 09:38:28;;;;;;;4.10;2.38;;;20.90;86.20;;;;;;5051275;28;20044;-78
2023/09/28 09:41:05;;;;;;;5.55;2.80;;;21.00;86.20;;;;;;5051115;28;20029;-79
2023/09/28 09:43:35;;;;;;;4.03;2.50;;;21.40;86.30;;;;;;5068801;28;20032;-79
2023/09/28 09:46:05;;;;;;;4.40;2.55;;;20.50;85.80;;;;;;5068191;28;20033;-79
2023/09/28 09:48:44;;;;;;;5.28;2.50;;;22.40;86.90;;;;;;5049952;28;20025;-79
2023/09/28 09:51:17;;;;;;;5.07;2.55;;;21.00;86.10;;;;;;5050427;28;20433;-77
2023/09/28 09:53:55;;;;;;;;;;;;;;;;;;;;;
2023/09/28 09:56:32;;;;;;;5.10;2.60;;;21.00;86.20;;;;;;5068715;28;21031;-78
2023/09/28 09:59:12;;;;;;;4.68;2.50;;;22.00;86.90;;;;;;5050327;28;20084;-79
2023/09/28 10:01:49;;;;;;;3.95;2.45;;;20.90;86.40;;;;;;5051148;28;20549;-79
2023/09/28 10:04:18;;;;;;;4.72;2.50;;;20.90;86.40;;;;;;5069186;28;20035;-78
2023/09/28 10:06:58;;;;;;;;;;;;;;;;;;;;;
2023/09/28 10:09:26;;;;;;;5.43;2.50;;;21.40;86.80;;;;;;5069614;28;20036;-79
2023/09/28 10:12:02;;;;;;;4.85;2.85;;;20.80;86.50;;;;;;5053136;28;20059;-79
2023/09/28 10:14:31;;;;;;;4.97;2.60;;;20.90;86.50;;;;;;5054704;28;20028;-80
2023/09/28 10:16:59;;;;;;;4.10;2.47;;;21.00;86.70;;;;;;5053986;28;20123;-79
2023/09/28 10:19:28;;;;;;;5.25;2.60;;;20.90;86.50;;;;;;5054003;28;20032;-80
2023/09/28 10:21:58;;;;;;;4.68;2.38;;;21.00;86.50;;;;;;5054171;28;20489;-78
2023/09/28 10:24:32;;;;;;;4.13;2.40;;;21.00;86.40;;;;;;5072056;28;20074;-78
2023/09/28 10:27:09;;;;;;;5.40;2.78;;;21.10;86.40;;;;;;5054503;28;20058;-77
2023/09/28 10:29:35;;;;;;;5.18;2.78;;;21.10;86.20;;;;;;5053591;28;20082;-79
2023/09/28 10:32:06;;;;;;;4.50;2.47;;;21.10;86.70;;;;;;5053910;28;20024;-79
2023/09/28 10:34:32;;;;;;;5.22;2.60;;;21.10;86.20;;;;;;5071658;28;20028;-79
2023/09/28 10:37:07;;;;;;;3.70;2.17;;;21.00;86.40;;;;;;5053674;28;20028;-78
2023/09/28 10:39:33;;;;;;;3.97;2.38;;;21.00;86.50;;;;;;5053730;28;20043;-80
2023/09/28 10:42:11;;;;;;;3.47;2.22;;;21.00;86.70;;;;;;5054376;28;20024;-79
2023/09/28 10:44:49;;;;;;;6.00;2.60;;;20.90;86.70;;;;;;5071650;28;20123;-80
2023/09/28 10:47:15;;;;;;;4.30;2.35;;;20.90;87.00;;;;;;5053971;28;20478;-78
2023/09/28 10:49:41;;;;;;;4.75;2.42;;;20.90;87.10;;;;;;5054879;28;20092;-79
2023/09/28 10:52:09;;;;;;;4.68;2.40;;;20.80;87.30;;;;;;5054299;28;20111;-79
2023/09/28 10:54:35;;;;;;;4.35;2.42;;;20.80;87.30;;;;;;5072261;28;20031;-77
2023/09/28 10:57:04;;;;;;;3.90;2.33;;;20.80;87.40;;;;;;5071361;28;20032;-79
2023/09/28 10:59:29;;;;;;;4.72;2.50;;;20.80;87.40;;;;;;5071680;28;20417;-80
2023/09/28 11:01:55;;;;;;;5.20;2.30;;;20.80;87.40;;;;;;5053937;28;20040;-79
2023/09/28 11:04:22;;;;;;;4.22;2.30;;;20.80;87.50;;;;;;5071646;28;20078;-80
2023/09/28 11:06:49;;;;;;;4.00;2.50;;;20.80;87.50;;;;;;5053823;28;20078;-79
2023/09/28 11:09:18;;;;;;;4.05;2.22;;;20.80;87.50;;;;;;5053300;28;20036;-81
2023/09/28 11:11:44;;;;;;;3.30;2.13;;;20.80;87.60;;;;;;5053342;28;20048;-78
2023/09/28 11:14:13;;;;;;;4.05;2.50;;;20.80;87.50;;;;;;5070689;28;20032;-80
2023/09/28 11:16:40;;;;;;;4.72;2.30;;;20.80;87.60;;;;;;5070851;28;20031;-79
2023/09/28 11:19:05;;;;;;;3.53;2.20;;;20.80;87.70;;;;;;5052711;28;20441;-79
2023/09/28 11:21:34;;;;;;;4.35;2.47;;;20.70;87.60;;;;;;5052791;28;20020;-80
2023/09/28 11:24:02;;;;;;;4.72;2.38;;;20.70;87.60;;;;;;5070511;28;20037;-80
2023/09/28 11:26:29;;;;;;;4.40;2.45;;;20.70;87.60;;;;;;5072780;28;20024;-80
2023/09/28 11:28:57;;;;;;;3.95;2.28;;;20.70;87.50;;;;;;5053249;28;20448;-80
2023/09/28 11:31:27;;;;;;;4.28;2.30;;;20.70;87.50;;;;;;5038606;28;20029;-80
2023/09/28 11:34:02;;;;;;;3.33;2.20;;;20.70;87.60;;;;;;5035426;28;20036;-82
2023/09/28 11:36:28;;;;;;;4.57;2.60;;;20.70;87.60;;;;;;5035517;28;20114;-79
2023/09/28 11:38:55;;;;;;;4.43;2.50;;;20.70;87.80;;;;;;5050449;28;20083;-78
2023/09/28 11:41:23;;;;;;;4.05;2.20;;;20.50;88.00;;;;;;5033038;28;20040;-77
2023/09/28 11:43:53;;;;;;;4.25;2.40;;;21.00;88.30;;;;;;5032947;28;20033;-80
2023/09/28 11:46:23;;;;;;;4.45;2.45;;;20.60;88.20;;;;;;5050985;28;20482;-79
2023/09/28 11:49:13;;;;;;;4.25;2.55;;;21.70;89.00;;;;;;5050701;28;20025;-79
2023/09/28 11:51:40;;;;;;;4.15;2.30;;;20.60;88.40;;;;;;5051097;28;20035;-81
2023/09/28 11:54:11;;;;;;;4.28;2.30;;;20.50;88.40;;;;;;5067905;28;20505;-79
2023/09/28 11:56:36;;;;;;;;;;;20.50;88.40;;;;;;5070962;28;20588;-80
2023/09/28 11:59:03;;;;;;;3.70;2.20;;;20.60;88.50;;;;;;5042771;28;19905;-81
2023/09/28 12:01:29;;;;;;;3.45;2.00;;;20.50;88.50;;;;;;5049554;28;20032;-79
2023/09/28 12:03:56;;;;;;;3.95;2.40;;;20.50;88.50;;;;;;5053161;28;20028;-81
2023/09/28 12:06:22;;;;;;;3.55;2.15;;;20.40;88.60;;;;;;5052820;28;20021;-81
2023/09/28 12:08:48;;;;;;;4.78;2.40;;;20.50;88.60;;;;;;5052699;28;20036;-80
2023/09/28 12:11:14;;;;;;;4.07;2.53;;;20.60;88.70;;;;;;5052403;28;20556;-82
2023/09/28 12:13:39;;;;;;;3.88;2.30;;;20.30;88.60;;;;;;5052804;28;20478;-81
2023/09/28 12:16:05;;;;;;;3.85;2.30;;;20.50;88.70;;;;;;5052615;28;20111;-79
2023/09/28 12:18:32;;;;;;;3.15;1.98;;;20.40;88.60;;;;;;5050849;28;20031;-78
2023/09/28 12:20:58;;;;;;;4.95;2.58;;;20.60;88.60;;;;;;5052226;28;20038;-81
2023/09/28 12:23:25;;;;;;;4.70;2.47;;;20.50;88.50;;;;;;5053166;28;20428;-80
2023/09/28 12:25:54;;;;;;;4.95;2.42;;;20.50;88.30;;;;;;5051525;28;20660;-81
2023/09/28 12:28:22;;;;;;;4.40;2.35;;;20.60;88.30;;;;;;5071708;28;20036;-81
2023/09/28 12:30:47;;;;;;;3.85;2.25;;;20.50;88.20;;;;;;5054949;28;20063;-82
2023/09/28 12:33:13;;;;;;;3.90;2.20;;;20.50;88.20;;;;;;5053519;28;20060;-80
2023/09/28 12:35:39;;;;;;;4.95;2.47;;;20.50;88.20;;;;;;5053413;28;20110;-80
2023/09/28 12:38:07;;;;;;;4.15;2.53;;;20.50;88.30;;;;;;5052870;28;20036;-80
2023/09/28 12:40:33;;;;;;;4.75;2.42;;;20.50;88.50;;;;;;5070515;28;20560;-80
2023/09/28 12:43:00;;;;;;;4.05;2.30;;;20.40;88.40;;;;;;5052308;28;20111;-80
2023/09/28 12:45:26;;;;;;;3.40;2.28;;;20.50;88.50;;;;;;5052089;28;20132;-79
2023/09/28 12:47:53;;;;;;;4.47;2.40;;;20.60;88.50;;;;;;5070392;28;20082;-81
2023/09/28 12:50:19;;;;;;;4.30;2.50;;;20.50;88.50;;;;;;5052053;28;20528;-81
2023/09/28 12:52:47;;;;;;;3.85;2.30;;;20.50;88.50;;;;;;5052337;28;20028;-82
2023/09/28 12:55:13;;;;;;;5.15;2.47;;;20.50;88.50;;;;;;5047874;28;20025;-78